createdAt,value
2018-09-28T00:10:01.415Z,68.4
2018-09-28T00:25:10.406Z,68.4
2018-09-28T00:40:31.951Z,69.5
2018-09-28T00:55:48.202Z,70.4
2018-09-28T01:11:03.773Z,71.2
2018-09-28T01:26:07.041Z,70.6
2018-09-28T01:41:36.023Z,71.2
2018-09-28T01:56:49.610Z,71.4
2018-09-28T02:12:04.697Z,71.3
2018-09-28T02:27:19.992Z,71.8
2018-09-28T02:42:32.390Z,73.9
2018-09-28T02:57:50.152Z,73.5
2018-09-28T03:13:05.345Z,75.1
2018-09-28T03:28:20.286Z,75.8
2018-09-28T03:43:26.728Z,74.6
2018-09-28T03:58:50.023Z,75.8
2018-09-28T04:14:05.185Z,76.8
2018-09-28T04:29:19.449Z,77.2
2018-09-28T04:44:34.312Z,78
2018-09-28T04:59:47.750Z,79.5
2018-09-28T05:15:03.702Z,80.3
2018-09-28T05:30:18.446Z,80.1
2018-09-28T05:45:33.182Z,79.5
2018-09-28T06:00:40.039Z,79.2
2018-09-28T06:16:02.994Z,78.5
2018-09-28T06:31:17.921Z,78.9
2018-09-28T06:46:33.006Z,63.7
2018-09-28T07:01:41.714Z,56.7
2018-09-28T07:17:03.902Z,53
2018-09-28T07:32:20.149Z,48.6
2018-09-28T07:47:36.134Z,42.5
2018-09-28T08:02:51.432Z,37.5
2018-09-28T08:18:08.502Z,38.7
2018-09-28T08:33:25.423Z,42.1
2018-09-28T08:48:42.347Z,45.5
2018-09-28T09:03:52.371Z,48.5
2018-09-28T09:19:15.391Z,50
2018-09-28T09:34:31.576Z,51.1
2018-09-28T09:49:47.499Z,53.8
2018-09-28T10:04:50.812Z,57.8
2018-09-28T10:20:19.631Z,64.2
2018-09-28T10:35:35.267Z,65.5
2018-09-28T10:50:51.266Z,70.9
2018-09-28T11:06:06.762Z,75.7
2018-09-28T11:21:17.262Z,79.8
2018-09-28T11:36:38.311Z,81.8
2018-09-28T11:51:52.806Z,84.8
2018-09-28T12:07:09.172Z,86.2
2018-09-28T12:22:12.480Z,84.8
2018-09-28T12:37:38.925Z,84.5
2018-09-28T12:52:53.866Z,84.8
2018-09-28T13:08:09.239Z,82
2018-09-28T13:23:25.285Z,80.3
2018-09-28T13:38:37.114Z,79.7
2018-09-28T13:53:56.317Z,78.7
2018-09-28T14:09:11.537Z,78.4
2018-09-28T14:24:27.862Z,75.4
2018-09-28T14:39:32.597Z,75.7
2018-09-28T14:54:59.663Z,73.8
2018-09-28T15:10:15.372Z,74
2018-09-28T15:25:31.499Z,67.8
2018-09-28T15:40:47.249Z,54.8
2018-09-28T15:55:59.178Z,50.3
2018-09-28T16:11:19.242Z,45.8
2018-09-28T16:26:35.044Z,46.2
2018-09-28T16:41:51.241Z,46.3
2018-09-28T16:56:55.454Z,46.1
2018-09-28T17:12:22.594Z,46.9
2018-09-28T17:27:38.162Z,48
2018-09-28T17:42:54.766Z,43.7
2018-09-28T17:58:09.115Z,38.8
2018-09-28T18:13:19.355Z,38
2018-09-28T18:28:39.867Z,38.1
2018-09-28T18:43:55.112Z,38
2018-09-28T18:59:10.690Z,38.6
2018-09-28T19:14:25.288Z,39.8
2018-09-28T19:29:40.304Z,41.2
2018-09-28T19:44:55.332Z,44.6
2018-09-28T20:00:09.880Z,46.2
2018-09-28T20:15:24.601Z,47.9
2018-09-28T20:30:35.529Z,48.6
2018-09-28T20:45:54.334Z,49.4
2018-09-28T21:01:07.967Z,50.1
2018-09-28T21:16:22.150Z,51.3
2018-09-28T21:31:36.541Z,52.3
2018-09-28T21:46:50.506Z,53.2
2018-09-28T22:02:04.854Z,54
2018-09-28T22:17:18.901Z,54.6
2018-09-28T22:32:33.509Z,56
2018-09-28T22:47:42.751Z,57.2
2018-09-28T23:03:00.787Z,58.3
2018-09-28T23:18:14.518Z,59.9
2018-09-28T23:33:29.280Z,60.8
2018-09-28T23:48:42.376Z,61.8
